Time;durP1;ratioP1;P1;durP2;ratioP2;P2;SDS_P1;SDS_P2;PMS_P1;PMS_P2;Temp;Humidity;BMP_temperature;BMP_pressure;BME280_temperature;BME280_humidity;BME280_pressure;Samples;Min_cycle;Max_cycle;Signal;HPM_P1;HPM_P2
2023/02/22 00:01:36;;;;;;;;;61.25;42.75;;;;;;;;5059196;28;51012;-57
2023/02/22 00:04:20;;;;;;;;;55.75;39.50;;;;;;;;5059266;28;51131;-54
2023/02/22 00:07:05;;;;;;;;;68.50;47.25;;;;;;;;5059999;28;51332;-53
2023/02/22 00:09:50;;;;;;;;;59.50;38.00;;;;;;;;5059336;28;51187;-55
2023/02/22 00:12:35;;;;;;;;;50.00;36.00;;;;;;;;5059144;28;51548;-53
2023/02/22 00:15:20;;;;;;;;;63.00;42.00;;;;;;;;5058729;28;51152;-56
2023/02/22 00:18:05;;;;;;;;;54.00;41.50;;;;;;;;5059316;28;51211;-59
2023/02/22 00:20:50;;;;;;;;;60.75;45.75;;;;;;;;5058759;28;51250;-60
2023/02/22 00:23:38;;;;;;;;;61.75;42.25;;;;;;;;5079002;28;51081;-56
2023/02/22 00:26:22;;;;;;;;;60.00;43.75;;;;;;;;5079999;27;51686;-57
2023/02/22 00:29:07;;;;;;;;;63.75;44.50;;;;;;;;5079856;27;51182;-53
2023/02/22 00:31:52;;;;;;;;;62.75;44.00;;;;;;;;5079079;28;51347;-56
2023/02/22 00:34:37;;;;;;;;;65.75;47.50;;;;;;;;5079120;28;51121;-56
2023/02/22 00:37:21;;;;;;;;;62.00;44.75;;;;;;;;5079025;28;51158;-58
2023/02/22 00:40:07;;;;;;;;;59.00;42.00;;;;;;;;5079167;28;52092;-56
2023/02/22 00:42:51;;;;;;;;;63.00;43.50;;;;;;;;5079582;28;51181;-57
2023/02/22 00:45:36;;;;;;;;;64.00;44.00;;;;;;;;5081303;27;51122;-58
2023/02/22 00:48:20;;;;;;;;;65.50;45.00;;;;;;;;5082605;27;51026;-58
2023/02/22 00:51:05;;;;;;;;;59.00;44.50;;;;;;;;5082694;27;51605;-59
2023/02/22 00:53:49;;;;;;;;;63.75;45.00;;;;;;;;5083016;27;51212;-56
2023/02/22 00:56:34;;;;;;;;;63.75;43.50;;;;;;;;5085631;27;51129;-59
2023/02/22 00:59:18;;;;;;;;;64.00;43.75;;;;;;;;5082333;27;51111;-54
2023/02/22 01:02:02;;;;;;;;;67.00;46.00;;;;;;;;5077486;27;51739;-58
2023/02/22 01:04:47;;;;;;;;;58.50;44.50;;;;;;;;5082009;27;51085;-56
2023/02/22 01:07:31;;;;;;;;;61.75;45.50;;;;;;;;5082357;27;51090;-53
2023/02/22 01:10:18;;;;;;;;;67.25;45.25;;;;;;;;5082216;27;51407;-56
2023/02/22 01:13:07;;;;;;;;;58.50;45.00;;;;;;;;5082127;27;51140;-57
2023/02/22 01:15:51;;;;;;;;;58.75;43.50;;;;;;;;5082153;27;51156;-58
2023/02/22 01:18:36;;;;;;;;;61.50;42.75;;;;;;;;5082226;27;51203;-56
2023/02/22 01:21:20;;;;;;;;;56.75;41.25;;;;;;;;5060779;27;51139;-54
2023/02/22 01:24:05;;;;;;;;;62.25;42.00;;;;;;;;5084367;27;51140;-56
2023/02/22 01:26:50;;;;;;;;;59.75;43.00;;;;;;;;5084152;27;51021;-56
2023/02/22 01:29:34;;;;;;;;;68.25;44.50;;;;;;;;5081642;27;53222;-56
2023/02/22 01:32:19;;;;;;;;;61.50;44.25;;;;;;;;5082113;27;51204;-53
2023/02/22 01:35:07;;;;;;;;;63.00;44.75;;;;;;;;5081734;27;51568;-59
2023/02/22 01:37:51;;;;;;;;;64.00;44.00;;;;;;;;5081680;27;51228;-59
2023/02/22 01:40:37;;;;;;;;;58.75;42.75;;;;;;;;5081371;27;51122;-56
2023/02/22 01:43:26;;;;;;;;;57.75;42.75;;;;;;;;5082117;27;51175;-57
2023/02/22 01:46:16;;;;;;;;;60.25;43.50;;;;;;;;5081351;27;51076;-59
2023/02/22 01:49:04;;;;;;;;;60.75;43.00;;;;;;;;5081540;27;51136;-55
2023/02/22 01:51:51;;;;;;;;;60.25;43.50;;;;;;;;5081435;27;51079;-54
2023/02/22 01:54:41;;;;;;;;;59.25;41.50;;;;;;;;5088468;27;51319;-56
2023/02/22 01:57:28;;;;;;;;;62.75;43.25;;;;;;;;5081824;27;51335;-55
2023/02/22 02:00:15;;;;;;;;;60.25;40.50;;;;;;;;5081277;27;51509;-59
2023/02/22 02:03:02;;;;;;;;;60.00;44.00;;;;;;;;5081104;27;51451;-56
2023/02/22 02:05:47;;;;;;;;;62.75;43.25;;;;;;;;5080806;27;50984;-54
2023/02/22 02:08:35;;;;;;;;;61.75;44.50;;;;;;;;5081363;27;51178;-57
2023/02/22 02:11:21;;;;;;;;;58.00;43.00;;;;;;;;5080818;27;51098;-56
2023/02/22 02:14:06;;;;;;;;;63.25;43.25;;;;;;;;5080816;27;51073;-57
2023/02/22 02:16:52;;;;;;;;;65.00;44.25;;;;;;;;5080723;27;51665;-53
2023/02/22 02:19:40;;;;;;;;;63.25;45.75;;;;;;;;5080872;27;51232;-55
2023/02/22 02:22:43;;;;;;;;;56.25;41.50;;;;;;;;5091073;27;51141;-59
2023/02/22 02:25:36;;;;;;;;;62.00;44.25;;;;;;;;5080826;27;51817;-53
2023/02/22 02:28:24;;;;;;;;;62.25;43.50;;;;;;;;5075592;27;51033;-58
2023/02/22 02:31:17;;;;;;;;;55.25;43.25;;;;;;;;5080583;27;51119;-60
2023/02/22 02:34:04;;;;;;;;;61.00;44.00;;;;;;;;5080754;27;51095;-55
2023/02/22 02:36:58;;;;;;;;;61.00;42.50;;;;;;;;5080299;27;51374;-55
2023/02/22 02:40:01;;;;;;;;;53.25;37.75;;;;;;;;5080504;27;51107;-57
2023/02/22 02:42:51;;;;;;;;;61.50;42.75;;;;;;;;5080482;27;51626;-56
2023/02/22 02:45:43;;;;;;;;;66.25;43.75;;;;;;;;5080399;27;51200;-56
2023/02/22 02:48:29;;;;;;;;;66.00;44.25;;;;;;;;5075649;27;51088;-53
2023/02/22 02:51:15;;;;;;;;;62.00;44.75;;;;;;;;5079907;27;51565;-57
2023/02/22 02:54:00;;;;;;;;;61.75;43.50;;;;;;;;5080146;27;51137;-55
2023/02/22 02:56:44;;;;;;;;;64.00;45.00;;;;;;;;5080202;27;51398;-56
2023/02/22 02:59:30;;;;;;;;;61.00;42.50;;;;;;;;5080645;27;51030;-57
2023/02/22 03:02:34;;;;;;;;;61.25;44.50;;;;;;;;5079756;27;51435;-54
2023/02/22 03:05:18;;;;;;;;;56.00;42.25;;;;;;;;5080016;27;51122;-56
2023/02/22 03:08:16;;;;;;;;;60.25;43.25;;;;;;;;5079359;27;51545;-56
2023/02/22 03:11:13;;;;;;;;;66.00;44.50;;;;;;;;5079720;27;51067;-59
2023/02/22 03:13:57;;;;;;;;;60.75;43.25;;;;;;;;5075159;27;51000;-54
2023/02/22 03:16:42;;;;;;;;;63.00;41.25;;;;;;;;5075855;27;51616;-56
2023/02/22 03:19:33;;;;;;;;;59.50;43.50;;;;;;;;5079924;27;51076;-55
2023/02/22 03:22:23;;;;;;;;;59.00;38.25;;;;;;;;5079399;27;51119;-57
2023/02/22 03:25:09;;;;;;;;;57.25;41.25;;;;;;;;5079867;27;51127;-57
2023/02/22 03:28:01;;;;;;;;;63.00;40.50;;;;;;;;5079686;27;51537;-59
2023/02/22 03:30:52;;;;;;;;;58.50;44.25;;;;;;;;5079758;27;51150;-58
2023/02/22 03:33:41;;;;;;;;;60.50;42.75;;;;;;;;5079768;28;51565;-55
2023/02/22 03:36:34;;;;;;;;;61.75;44.00;;;;;;;;5084337;27;51210;-52
2023/02/22 03:39:19;;;;;;;;;60.50;43.50;;;;;;;;5079721;28;50979;-59
2023/02/22 03:42:05;;;;;;;;;64.00;43.00;;;;;;;;5079430;28;51069;-54
2023/02/22 03:44:52;;;;;;;;;60.00;43.75;;;;;;;;5079620;28;51523;-58
2023/02/22 03:47:38;;;;;;;;;63.50;45.75;;;;;;;;5079469;28;51157;-55
2023/02/22 03:50:28;;;;;;;;;65.50;46.00;;;;;;;;5079696;28;51174;-57
2023/02/22 03:53:13;;;;;;;;;59.00;42.00;;;;;;;;5078951;28;51562;-56
2023/02/22 03:55:58;;;;;;;;;63.00;44.75;;;;;;;;5079584;28;51121;-56
2023/02/22 03:58:44;;;;;;;;;62.75;44.50;;;;;;;;5079684;28;51229;-59
2023/02/22 04:01:28;;;;;;;;;63.50;44.50;;;;;;;;5079020;28;51359;-57
2023/02/22 04:04:13;;;;;;;;;47.75;30.50;;;;;;;;5079675;28;51175;-59
2023/02/22 04:07:16;;;;;;;;;60.75;43.75;;;;;;;;5075687;28;51496;-54
2023/02/22 04:10:07;;;;;;;;;58.00;42.00;;;;;;;;5076033;28;51187;-56
2023/02/22 04:12:51;;;;;;;;;55.75;39.50;;;;;;;;5079124;28;51047;-55
2023/02/22 04:15:36;;;;;;;;;62.25;45.75;;;;;;;;5079767;28;51074;-56
2023/02/22 04:18:20;;;;;;;;;62.25;44.25;;;;;;;;5078897;27;51153;-59
2023/02/22 04:21:05;;;;;;;;;55.25;43.75;;;;;;;;5082755;27;51085;-57
2023/02/22 04:23:49;;;;;;;;;62.50;44.25;;;;;;;;5086615;27;51130;-58
2023/02/22 04:26:34;;;;;;;;;62.00;44.50;;;;;;;;5082755;27;51116;-60
2023/02/22 04:29:18;;;;;;;;;61.25;43.75;;;;;;;;5083199;27;51094;-56
2023/02/22 04:32:03;;;;;;;;;64.50;44.25;;;;;;;;5082983;27;51493;-55
2023/02/22 04:34:47;;;;;;;;;61.00;45.00;;;;;;;;5076984;27;51560;-54
2023/02/22 04:37:33;;;;;;;;;60.00;43.75;;;;;;;;5082658;27;51455;-56
2023/02/22 04:40:17;;;;;;;;;63.75;46.25;;;;;;;;5083017;27;51028;-53
2023/02/22 04:43:02;;;;;;;;;59.00;42.75;;;;;;;;5082556;27;51269;-53
2023/02/22 04:45:46;;;;;;;;;59.75;43.75;;;;;;;;5082789;27;51094;-56
2023/02/22 04:48:31;;;;;;;;;67.25;46.75;;;;;;;;5082434;27;51685;-56
2023/02/22 04:51:15;;;;;;;;;58.75;43.25;;;;;;;;5082428;27;51312;-56
2023/02/22 04:54:00;;;;;;;;;65.25;47.00;;;;;;;;5086348;27;51132;-53
2023/02/22 04:56:44;;;;;;;;;57.50;45.00;;;;;;;;5085532;27;51124;-57
2023/02/22 04:59:29;;;;;;;;;59.75;43.00;;;;;;;;5082358;27;51200;-58
2023/02/22 05:02:13;;;;;;;;;61.50;43.00;;;;;;;;5082359;27;51280;-58
2023/02/22 05:04:57;;;;;;;;;64.50;42.75;;;;;;;;5082640;27;51233;-54
2023/02/22 05:07:42;;;;;;;;;62.50;45.75;;;;;;;;5081976;27;51479;-55
2023/02/22 05:10:26;;;;;;;;;64.75;47.00;;;;;;;;5082117;27;51078;-59
2023/02/22 05:13:10;;;;;;;;;62.50;44.75;;;;;;;;5082427;27;52095;-58
2023/02/22 05:15:55;;;;;;;;;56.00;42.25;;;;;;;;5082147;27;51090;-56
2023/02/22 05:18:39;;;;;;;;;66.25;44.00;;;;;;;;5082281;27;51178;-56
2023/02/22 05:21:24;;;;;;;;;63.00;45.75;;;;;;;;5081782;27;51561;-56
2023/02/22 05:24:08;;;;;;;;;67.50;45.75;;;;;;;;5089186;27;51847;-57
2023/02/22 05:26:52;;;;;;;;;62.75;43.50;;;;;;;;5081605;27;51042;-56
2023/02/22 05:29:37;;;;;;;;;62.75;45.75;;;;;;;;5081832;27;51218;-54
2023/02/22 05:32:21;;;;;;;;;62.75;44.75;;;;;;;;5081625;27;51089;-57
2023/02/22 05:35:07;;;;;;;;;65.00;47.00;;;;;;;;5082050;27;51156;-56
2023/02/22 05:37:51;;;;;;;;;63.00;45.75;;;;;;;;5081622;27;51657;-55
2023/02/22 05:40:36;;;;;;;;;57.25;40.00;;;;;;;;5081376;27;51202;-56
2023/02/22 05:43:20;;;;;;;;;58.75;44.50;;;;;;;;5081970;27;51117;-59
2023/02/22 05:46:04;;;;;;;;;63.25;44.50;;;;;;;;5081479;27;51021;-55
2023/02/22 05:48:49;;;;;;;;;62.50;43.25;;;;;;;;5081453;27;51117;-54
2023/02/22 05:51:33;;;;;;;;;67.50;44.75;;;;;;;;5081346;27;51083;-55
2023/02/22 05:54:18;;;;;;;;;68.25;44.25;;;;;;;;5077135;27;51072;-55
2023/02/22 05:57:02;;;;;;;;;63.00;43.00;;;;;;;;5081247;27;51512;-58
2023/02/22 05:59:47;;;;;;;;;61.25;44.75;;;;;;;;5081350;27;52046;-58
2023/02/22 06:02:31;;;;;;;;;59.25;45.75;;;;;;;;5081190;27;51621;-57
2023/02/22 06:05:15;;;;;;;;;64.00;44.75;;;;;;;;5081192;27;51069;-55
2023/02/22 06:08:01;;;;;;;;;64.25;44.50;;;;;;;;5081178;27;51185;-59
2023/02/22 06:10:45;;;;;;;;;65.00;44.00;;;;;;;;5080676;27;51175;-58
2023/02/22 06:13:29;;;;;;;;;62.00;47.25;;;;;;;;5081039;27;51093;-58
2023/02/22 06:16:13;;;;;;;;;66.25;46.00;;;;;;;;5081061;27;51596;-56
2023/02/22 06:18:58;;;;;;;;;62.00;45.50;;;;;;;;5080944;27;51057;-57
2023/02/22 06:21:48;;;;;;;;;62.25;47.25;;;;;;;;5061271;27;51415;-55
2023/02/22 06:24:33;;;;;;;;;61.75;44.00;;;;;;;;5084041;27;51069;-59
2023/02/22 06:27:16;;;;;;;;;61.50;45.75;;;;;;;;5080924;27;51034;-58
2023/02/22 06:30:01;;;;;;;;;64.75;44.25;;;;;;;;5080414;27;51099;-55
2023/02/22 06:32:45;;;;;;;;;61.25;44.25;;;;;;;;5080579;27;51066;-59
2023/02/22 06:35:29;;;;;;;;;63.00;43.75;;;;;;;;5081312;27;51173;-44
2023/02/22 06:38:21;;;;;;;;;58.25;43.25;;;;;;;;5080936;27;51102;-45
2023/02/22 06:41:05;;;;;;;;;62.75;44.00;;;;;;;;5080352;27;51515;-45
2023/02/22 06:43:49;;;;;;;;;65.75;44.50;;;;;;;;5080125;27;51049;-45
2023/02/22 06:46:34;;;;;;;;;63.75;43.50;;;;;;;;5080284;27;51425;-43
2023/02/22 06:49:19;;;;;;;;;64.00;44.00;;;;;;;;5080591;27;51291;-43
2023/02/22 06:52:06;;;;;;;;;64.25;45.00;;;;;;;;5080405;27;51129;-44
2023/02/22 06:54:51;;;;;;;;;67.00;45.75;;;;;;;;5080476;27;51114;-44
2023/02/22 06:57:35;;;;;;;;;61.75;44.00;;;;;;;;5080710;27;51071;-46
2023/02/22 07:00:23;;;;;;;;;55.75;39.50;;;;;;;;5073499;27;51543;-44
2023/02/22 07:03:07;;;;;;;;;62.50;46.25;;;;;;;;5080275;27;51766;-43
2023/02/22 07:05:52;;;;;;;;;66.75;45.75;;;;;;;;5080055;27;51185;-44
2023/02/22 07:08:36;;;;;;;;;68.00;45.75;;;;;;;;5080667;27;51128;-44
2023/02/22 07:11:21;;;;;;;;;63.50;44.75;;;;;;;;5079849;27;51628;-47
2023/02/22 07:14:05;;;;;;;;;41.25;31.25;;;;;;;;5079742;27;51198;-43
2023/02/22 07:16:49;;;;;;;;;64.00;45.50;;;;;;;;5075877;27;51582;-45
2023/02/22 07:19:34;;;;;;;;;59.25;44.25;;;;;;;;5079806;27;51512;-45
2023/02/22 07:22:20;;;;;;;;;62.00;46.00;;;;;;;;5095722;27;51191;-43
2023/02/22 07:25:06;;;;;;;;;61.00;44.00;;;;;;;;5099895;27;51326;-46
2023/02/22 07:27:51;;;;;;;;;55.75;40.50;;;;;;;;5100332;27;50967;-44
2023/02/22 07:30:49;;;;;;;;;61.50;44.75;;;;;;;;5016816;28;51173;-46
2023/02/22 07:33:51;;;;;;;;;60.75;43.25;;;;;;;;4997496;28;51214;-44
2023/02/22 07:36:35;;;;;;;;;48.25;32.25;;;;;;;;4997106;28;51181;-46
2023/02/22 07:39:19;;;;;;;;;60.50;43.00;;;;;;;;4997220;28;51256;-44
2023/02/22 07:42:03;;;;;;;;;57.25;40.75;;;;;;;;4997190;28;51616;-42
2023/02/22 07:44:47;;;;;;;;;62.75;44.50;;;;;;;;4995113;28;51115;-44
2023/02/22 07:47:32;;;;;;;;;62.25;43.25;;;;;;;;4984275;28;51126;-46
2023/02/22 07:50:16;;;;;;;;;61.50;43.75;;;;;;;;4996848;28;51184;-45
2023/02/22 07:53:02;;;;;;;;;65.75;45.00;;;;;;;;4997187;28;51702;-46
2023/02/22 07:55:50;;;;;;;;;58.75;43.25;;;;;;;;5001073;28;51376;-45
2023/02/22 07:58:34;;;;;;;;;59.75;44.00;;;;;;;;5001352;28;51430;-45
2023/02/22 08:01:19;;;;;;;;;62.75;43.50;;;;;;;;5000569;28;51112;-46
2023/02/22 08:04:03;;;;;;;;;64.50;43.25;;;;;;;;5001000;28;51249;-44
2023/02/22 08:06:48;;;;;;;;;58.50;44.00;;;;;;;;5009958;28;51226;-46
2023/02/22 08:09:32;;;;;;;;;59.00;42.00;;;;;;;;5082897;27;51173;-46
2023/02/22 08:12:16;;;;;;;;;59.00;43.25;;;;;;;;5083453;27;51196;-44
2023/02/22 08:15:02;;;;;;;;;56.75;42.75;;;;;;;;5083416;27;51063;-44
2023/02/22 08:17:46;;;;;;;;;66.25;44.00;;;;;;;;5077978;27;51508;-43
2023/02/22 08:20:31;;;;;;;;;66.25;46.25;;;;;;;;5065356;27;51096;-43
2023/02/22 08:23:16;;;;;;;;;60.00;42.25;;;;;;;;5083216;27;51126;-44
2023/02/22 08:26:04;;;;;;;;;58.00;44.25;;;;;;;;5083060;27;51217;-43
2023/02/22 08:28:49;;;;;;;;;55.75;43.00;;;;;;;;5083355;27;51159;-45
2023/02/22 08:31:33;;;;;;;;;64.00;44.50;;;;;;;;5082979;27;51129;-44
2023/02/22 08:34:17;;;;;;;;;56.50;40.50;;;;;;;;5082707;27;51137;-44
2023/02/22 08:37:02;;;;;;;;;66.00;44.50;;;;;;;;5083644;27;51156;-45
2023/02/22 08:39:46;;;;;;;;;63.75;43.50;;;;;;;;5089231;27;50988;-43
2023/02/22 08:42:30;;;;;;;;;56.50;40.75;;;;;;;;5076920;27;51731;-44
2023/02/22 08:45:16;;;;;;;;;57.75;41.50;;;;;;;;5082290;27;51108;-45
2023/02/22 08:48:00;;;;;;;;;62.00;44.25;;;;;;;;5083185;27;51089;-44
2023/02/22 08:50:45;;;;;;;;;59.25;41.00;;;;;;;;5082133;27;51096;-43
2023/02/22 08:53:31;;;;;;;;;59.50;43.75;;;;;;;;5082274;27;51076;-46
2023/02/22 08:56:15;;;;;;;;;57.50;40.75;;;;;;;;5082221;27;51618;-43
2023/02/22 08:59:00;;;;;;;;;60.00;44.25;;;;;;;;5083206;27;51269;-44
2023/02/22 09:01:44;;;;;;;;;59.00;41.25;;;;;;;;5082178;27;51182;-43
2023/02/22 09:04:28;;;;;;;;;53.50;42.00;;;;;;;;5082082;27;51985;-44
2023/02/22 09:07:13;;;;;;;;;58.25;41.00;;;;;;;;5081979;27;51712;-44
2023/02/22 09:09:57;;;;;;;;;58.25;42.25;;;;;;;;5081922;27;51041;-45
2023/02/22 09:12:42;;;;;;;;;57.75;41.50;;;;;;;;5082185;27;50953;-45
2023/02/22 09:15:26;;;;;;;;;61.75;40.75;;;;;;;;5081397;27;51148;-45
2023/02/22 09:18:13;;;;;;;;;64.00;43.00;;;;;;;;5082007;27;51138;-45
2023/02/22 09:20:57;;;;;;;;;58.00;42.25;;;;;;;;5081991;27;51123;-45
2023/02/22 09:23:42;;;;;;;;;53.50;41.00;;;;;;;;5081768;27;51114;-43
2023/02/22 09:26:26;;;;;;;;;52.50;39.50;;;;;;;;5081898;27;51215;-43
2023/02/22 09:29:10;;;;;;;;;55.75;42.00;;;;;;;;5075922;27;51234;-45
2023/02/22 09:31:55;;;;;;;;;62.75;44.25;;;;;;;;5081872;27;51127;-43
2023/02/22 09:34:44;;;;;;;;;58.00;38.75;;;;;;;;5081678;27;51157;-44
2023/02/22 09:37:28;;;;;;;;;60.00;41.25;;;;;;;;5082165;27;51076;-44
2023/02/22 09:40:23;;;;;;;;;61.25;42.25;;;;;;;;5081360;27;51364;-44
2023/02/22 09:43:26;;;;;;;;;56.25;40.50;;;;;;;;5081337;27;51085;-43
2023/02/22 09:46:22;;;;;;;;;56.75;41.00;;;;;;;;5081457;27;51722;-44
2023/02/22 09:49:06;;;;;;;;;51.00;37.25;;;;;;;;5081019;27;51111;-43
2023/02/22 09:51:56;;;;;;;;;55.75;42.25;;;;;;;;5081405;27;51322;-46
2023/02/22 09:55:03;;;;;;;;;58.00;39.50;;;;;;;;5081456;27;51022;-45
2023/02/22 09:57:48;;;;;;;;;55.25;39.50;;;;;;;;5051483;27;51130;-46
2023/02/22 10:00:36;;;;;;;;;53.75;39.25;;;;;;;;5083292;27;51197;-44
2023/02/22 10:03:43;;;;;;;;;57.00;39.25;;;;;;;;5081838;27;51156;-44
2023/02/22 10:06:28;;;;;;;;;60.00;40.25;;;;;;;;5080800;27;51688;-47
2023/02/22 10:09:14;;;;;;;;;54.00;40.00;;;;;;;;5083628;27;51374;-46
2023/02/22 10:12:01;;;;;;;;;58.25;40.25;;;;;;;;5080501;27;51069;-46
2023/02/22 10:14:52;;;;;;;;;61.50;41.25;;;;;;;;5080632;27;51092;-43
2023/02/22 10:17:55;;;;;;;;;52.75;35.00;;;;;;;;5080775;27;51109;-46
2023/02/22 10:20:48;;;;;;;;;54.75;40.50;;;;;;;;5080854;27;51166;-44
2023/02/22 10:23:37;;;;;;;;;59.25;39.75;;;;;;;;5081018;27;51076;-46
2023/02/22 10:26:24;;;;;;;;;59.25;42.00;;;;;;;;5080289;27;51160;-45
2023/02/22 10:29:17;;;;;;;;;56.75;41.50;;;;;;;;5084633;27;51110;-46
2023/02/22 10:32:03;;;;;;;;;58.50;40.75;;;;;;;;5077123;27;51496;-45
2023/02/22 10:34:50;;;;;;;;;32.75;21.75;;;;;;;;5080658;27;51161;-46
2023/02/22 10:37:34;;;;;;;;;34.25;30.75;;;;;;;;5080458;27;52083;-43
2023/02/22 10:40:21;;;;;;;;;56.00;40.25;;;;;;;;5080391;27;51460;-46
2023/02/22 10:43:08;;;;;;;;;61.00;41.25;;;;;;;;5080208;27;51392;-44
2023/02/22 10:45:54;;;;;;;;;50.25;39.50;;;;;;;;5080026;27;51112;-45
2023/02/22 10:48:39;;;;;;;;;58.75;39.75;;;;;;;;5080425;27;51115;-44
2023/02/22 10:51:24;;;;;;;;;57.00;38.50;;;;;;;;5079910;27;51247;-45
2023/02/22 10:54:14;;;;;;;;;57.25;38.50;;;;;;;;5080461;27;51049;-45
2023/02/22 10:56:59;;;;;;;;;58.25;43.00;;;;;;;;5080121;27;51057;-44
2023/02/22 10:59:44;;;;;;;;;51.50;39.50;;;;;;;;5080150;27;51236;-45
2023/02/22 11:02:32;;;;;;;;;59.50;40.75;;;;;;;;5079969;27;51724;-45
2023/02/22 11:05:25;;;;;;;;;58.25;40.25;;;;;;;;5080305;27;51053;-45
2023/02/22 11:08:24;;;;;;;;;54.75;40.00;;;;;;;;5074478;27;51365;-44
2023/02/22 11:11:20;;;;;;;;;54.00;39.75;;;;;;;;5079425;27;51142;-44
2023/02/22 11:14:05;;;;;;;;;51.25;36.25;;;;;;;;5079580;27;51527;-44
2023/02/22 11:16:51;;;;;;;;;54.50;39.75;;;;;;;;5079922;27;51116;-46
2023/02/22 11:19:37;;;;;;;;;60.00;39.75;;;;;;;;5080126;27;51055;-44
2023/02/22 11:22:24;;;;;;;;;53.50;37.50;;;;;;;;5080114;27;51322;-44
2023/02/22 11:25:17;;;;;;;;;61.00;41.75;;;;;;;;5076791;27;51104;-44
2023/02/22 11:28:14;;;;;;;;;54.00;41.50;;;;;;;;5079356;27;51511;-46
2023/02/22 11:31:10;;;;;;;;;49.25;35.25;;;;;;;;5079349;27;51027;-45
2023/02/22 11:33:59;;;;;;;;;60.00;42.25;;;;;;;;5079449;27;51121;-45
2023/02/22 11:36:45;;;;;;;;;59.50;40.50;;;;;;;;5077670;27;52360;-46
2023/02/22 11:39:34;;;;;;;;;59.75;41.25;;;;;;;;5079123;28;51019;-44
2023/02/22 11:42:25;;;;;;;;;57.25;40.25;;;;;;;;5079550;28;51508;-44
2023/02/22 11:45:22;;;;;;;;;53.50;40.50;;;;;;;;5064148;28;51192;-44
2023/02/22 11:48:07;;;;;;;;;55.75;38.75;;;;;;;;5079558;28;51052;-43
2023/02/22 11:50:58;;;;;;;;;61.50;38.50;;;;;;;;5079694;28;51026;-44
2023/02/22 11:53:51;;;;;;;;;63.25;40.75;;;;;;;;5079578;28;51162;-46
2023/02/22 11:56:39;;;;;;;;;54.50;37.75;;;;;;;;5080634;27;51015;-42
2023/02/22 11:59:26;;;;;;;;;52.00;36.50;;;;;;;;5079359;28;51550;-44
2023/02/22 12:02:17;;;;;;;;;57.50;42.00;;;;;;;;5079378;27;51130;-45
2023/02/22 12:05:21;;;;;;;;;55.75;38.00;;;;;;;;5074147;28;51096;-43
2023/02/22 12:08:14;;;;;;;;;53.50;39.25;;;;;;;;5079415;28;51134;-45
2023/02/22 12:11:05;;;;;;;;;56.75;40.75;;;;;;;;5079946;28;51182;-44
2023/02/22 12:13:52;;;;;;;;;55.75;40.50;;;;;;;;5079156;28;51110;-43
2023/02/22 12:17:03;;;;;;;;;47.75;36.25;;;;;;;;5079440;28;51242;-44
2023/02/22 12:19:57;;;;;;;;;57.50;36.75;;;;;;;;5079383;28;51651;-44
2023/02/22 12:22:52;;;;;;;;;58.00;40.50;;;;;;;;5081305;27;51102;-45
2023/02/22 12:25:37;;;;;;;;;55.50;40.50;;;;;;;;5080554;27;51517;-44
2023/02/22 12:28:25;;;;;;;;;57.50;40.00;;;;;;;;5079271;28;51137;-43
2023/02/22 12:31:24;;;;;;;;;62.25;43.00;;;;;;;;5079628;27;51215;-45
2023/02/22 12:34:20;;;;;;;;;48.00;36.00;;;;;;;;5079197;28;51052;-45
2023/02/22 12:37:10;;;;;;;;;56.50;39.00;;;;;;;;5079305;28;51147;-45
2023/02/22 12:39:58;;;;;;;;;57.75;42.00;;;;;;;;5076953;27;51043;-47
2023/02/22 12:42:42;;;;;;;;;63.25;41.00;;;;;;;;5082706;27;51086;-46
2023/02/22 12:45:30;;;;;;;;;57.75;41.75;;;;;;;;5083033;27;51650;-46
2023/02/22 12:48:33;;;;;;;;;59.00;39.50;;;;;;;;5083075;27;51038;-47
2023/02/22 12:51:26;;;;;;;;;55.75;37.75;;;;;;;;5082896;27;51578;-47
2023/02/22 12:54:11;;;;;;;;;59.00;41.00;;;;;;;;5082521;27;51296;-47
2023/02/22 12:56:58;;;;;;;;;63.75;41.25;;;;;;;;5083854;27;51264;-47
2023/02/22 12:59:54;;;;;;;;;57.75;39.75;;;;;;;;5082350;27;51136;-47
2023/02/22 13:02:53;;;;;;;;;63.00;41.25;;;;;;;;5082876;27;51051;-47
2023/02/22 13:05:38;;;;;;;;;57.75;40.50;;;;;;;;5082064;27;51033;-46
2023/02/22 13:08:35;;;;;;;;;60.25;38.25;;;;;;;;5082399;27;51036;-50
2023/02/22 13:11:32;;;;;;;;;55.25;41.25;;;;;;;;5082287;27;51103;-47
2023/02/22 13:14:29;;;;;;;;;55.75;40.50;;;;;;;;5082339;27;51111;-48
2023/02/22 13:17:31;;;;;;;;;57.00;40.00;;;;;;;;5081980;27;51359;-49
2023/02/22 13:20:22;;;;;;;;;64.00;43.00;;;;;;;;5081959;27;51107;-50
2023/02/22 13:23:18;;;;;;;;;60.75;41.25;;;;;;;;5081800;27;51147;-48
2023/02/22 13:26:20;;;;;;;;;53.00;40.25;;;;;;;;5081971;27;53232;-49
2023/02/22 13:29:10;;;;;;;;;59.25;41.00;;;;;;;;5082249;27;51214;-50
2023/02/22 13:32:12;;;;;;;;;59.00;39.50;;;;;;;;5081621;27;51352;-47
2023/02/22 13:34:56;;;;;;;;;54.00;37.25;;;;;;;;5081725;27;51195;-53
2023/02/22 13:38:01;;;;;;;;;58.00;41.75;;;;;;;;5081824;27;51186;-57
2023/02/22 13:40:45;;;;;;;;;56.50;38.25;;;;;;;;5082157;27;51046;-60
2023/02/22 13:43:40;;;;;;;;;63.25;40.25;;;;;;;;5081562;27;51208;-57
2023/02/22 13:46:47;;;;;;;;;63.25;39.75;;;;;;;;5081491;27;51180;-53
2023/02/22 13:49:54;;;;;;;;;56.50;40.75;;;;;;;;5044302;27;51738;-57
2023/02/22 13:52:39;;;;;;;;;55.75;38.50;;;;;;;;5080991;27;51162;-55
2023/02/22 13:55:27;;;;;;;;;53.75;40.25;;;;;;;;5081689;27;51082;-59
2023/02/22 13:58:11;;;;;;;;;56.50;39.00;;;;;;;;5081294;27;51499;-61
2023/02/22 14:00:57;;;;;;;;;57.75;39.25;;;;;;;;5081237;27;51126;-62
2023/02/22 14:03:41;;;;;;;;;58.50;40.50;;;;;;;;5081240;27;50958;-62
2023/02/22 14:06:36;;;;;;;;;60.50;39.50;;;;;;;;5081746;27;51157;-60
2023/02/22 14:09:44;;;;;;;;;59.25;41.25;;;;;;;;5080919;27;51363;-61
2023/02/22 14:12:28;;;;;;;;;60.50;40.75;;;;;;;;5080769;27;50981;-60
2023/02/22 14:15:17;;;;;;;;;55.75;39.50;;;;;;;;5081157;27;51530;-62
2023/02/22 14:18:03;;;;;;;;;60.75;36.75;;;;;;;;5081064;27;51094;-61
2023/02/22 14:21:03;;;;;;;;;63.00;41.75;;;;;;;;5081227;27;51100;-61
2023/02/22 14:23:55;;;;;;;;;58.50;42.00;;;;;;;;5080919;27;51200;-61
2023/02/22 14:26:40;;;;;;;;;57.00;40.00;;;;;;;;5080795;27;51194;-60
2023/02/22 14:29:24;;;;;;;;;59.00;41.00;;;;;;;;5080547;27;51153;-59
2023/02/22 14:32:09;;;;;;;;;60.00;42.00;;;;;;;;5080875;27;51138;-60
2023/02/22 14:34:56;;;;;;;;;59.25;40.75;;;;;;;;5080487;27;51155;-61
2023/02/22 14:37:44;;;;;;;;;57.75;39.25;;;;;;;;5080439;27;51060;-60
2023/02/22 14:40:29;;;;;;;;;55.50;38.50;;;;;;;;5080553;27;51544;-61
2023/02/22 14:43:23;;;;;;;;;60.50;40.25;;;;;;;;5080202;27;51085;-61
2023/02/22 14:46:09;;;;;;;;;57.50;40.75;;;;;;;;5080781;27;51024;-61
2023/02/22 14:48:59;;;;;;;;;57.00;41.25;;;;;;;;5080270;27;51075;-60
2023/02/22 14:51:53;;;;;;;;;55.75;39.50;;;;;;;;5080302;27;51033;-61
2023/02/22 14:54:48;;;;;;;;;59.75;43.25;;;;;;;;5080200;27;51142;-61
2023/02/22 14:57:41;;;;;;;;;58.00;39.00;;;;;;;;5080481;27;51073;-61
2023/02/22 15:00:30;;;;;;;;;61.50;41.25;;;;;;;;5080035;27;51461;-61
2023/02/22 15:03:31;;;;;;;;;56.75;41.50;;;;;;;;5079471;27;51085;-62
2023/02/22 15:06:17;;;;;;;;;60.25;40.25;;;;;;;;5080272;27;51045;-59
2023/02/22 15:09:06;;;;;;;;;56.75;41.00;;;;;;;;5079925;27;51078;-60
2023/02/22 15:12:03;;;;;;;;;59.75;41.50;;;;;;;;5080367;27;51005;-60
2023/02/22 15:14:48;;;;;;;;;52.25;33.75;;;;;;;;5079796;27;51454;-61
2023/02/22 15:17:32;;;;;;;;;60.00;42.25;;;;;;;;5079756;27;51131;-59
2023/02/22 15:20:19;;;;;;;;;64.00;42.50;;;;;;;;5079840;27;51169;-62
2023/02/22 15:23:03;;;;;;;;;62.50;40.75;;;;;;;;5079828;27;51103;-60
2023/02/22 15:25:52;;;;;;;;;59.75;38.50;;;;;;;;5079405;27;51083;-61
2023/02/22 15:28:37;;;;;;;;;56.25;39.50;;;;;;;;5079668;27;51158;-61
2023/02/22 15:31:23;;;;;;;;;53.25;35.75;;;;;;;;5079832;27;51579;-61
2023/02/22 15:34:08;;;;;;;;;58.00;39.75;;;;;;;;5079708;27;51040;-60
2023/02/22 15:36:55;;;;;;;;;59.50;42.00;;;;;;;;5079643;27;51211;-61
2023/02/22 15:39:42;;;;;;;;;57.00;40.00;;;;;;;;5060968;28;51174;-60
2023/02/22 15:42:29;;;;;;;;;59.75;41.00;;;;;;;;5079330;28;51107;-61
2023/02/22 15:45:18;;;;;;;;;60.25;39.75;;;;;;;;5078983;28;51250;-59
2023/02/22 15:48:03;;;;;;;;;52.75;40.25;;;;;;;;5079632;28;51039;-61
2023/02/22 15:50:58;;;;;;;;;61.25;43.50;;;;;;;;5079069;28;51069;-59
2023/02/22 15:53:47;;;;;;;;;59.75;34.50;;;;;;;;5078962;28;51295;-60
2023/02/22 15:56:34;;;;;;;;;35.00;27.50;;;;;;;;5079277;28;51155;-61
2023/02/22 15:59:19;;;;;;;;;43.75;32.75;;;;;;;;5079265;28;51187;-62
2023/02/22 16:02:03;;;;;;;;;44.25;33.25;;;;;;;;5079354;28;51094;-62
2023/02/22 16:04:47;;;;;;;;;54.00;40.25;;;;;;;;5079113;28;51204;-59
2023/02/22 16:07:34;;;;;;;;;56.50;40.75;;;;;;;;5079300;28;51132;-60
2023/02/22 16:10:21;;;;;;;;;54.00;38.25;;;;;;;;5075052;28;51100;-60
2023/02/22 16:13:07;;;;;;;;;56.50;39.25;;;;;;;;5079107;28;51351;-61
2023/02/22 16:16:02;;;;;;;;;50.50;36.00;;;;;;;;5082387;27;51133;-59